Time;durP1;ratioP1;P1;durP2;ratioP2;P2;SDS_P1;SDS_P2;PMS_P1;PMS_P2;Temp;Humidity;BMP_temperature;BMP_pressure;BME280_temperature;BME280_humidity;BME280_pressure;Samples;Min_cycle;Max_cycle;Signal;HPM_P1;HPM_P2
2023/08/23 00:01:54;;;;;;;6.30;4.80;;;;;;;-141.84;70.00;21501.06;5019359;28;20539;-60
2023/08/23 00:04:23;;;;;;;6.43;4.25;;;;;;;-141.84;70.32;21433.97;5024760;28;20705;-59
2023/08/23 00:06:51;;;;;;;4.63;3.95;;;;;;;-141.84;70.71;21470.56;5022432;28;20233;-67
2023/08/23 00:09:20;;;;;;;4.43;4.03;;;;;;;-141.84;71.14;21482.75;5015913;28;20608;-66
2023/08/23 00:11:48;;;;;;;4.38;3.63;;;;;;;-141.84;71.46;21419.72;5016364;28;20265;-67
2023/08/23 00:14:17;;;;;;;6.72;4.35;;;;;;;-141.84;71.46;21419.72;5034290;28;20325;-66
2023/08/23 00:16:47;;;;;;;6.68;4.38;;;;;;;-141.84;71.38;21436.00;5031167;28;20232;-66
2023/08/23 00:19:15;;;;;;;4.57;4.18;;;;;;;-141.84;71.49;21397.38;5029913;28;20238;-66
2023/08/23 00:21:44;;;;;;;5.45;3.85;;;;;;;-141.84;71.94;21387.19;5025900;28;20288;-66
2023/08/23 00:24:12;;;;;;;5.97;4.00;;;;;;;-141.84;72.11;21358.75;5007917;28;20773;-66
2023/08/23 00:26:41;;;;;;;5.00;3.95;;;;;;;-141.84;72.33;21379.06;5025187;28;20226;-60
2023/08/23 00:29:09;;;;;;;4.82;4.38;;;;;;;-141.84;72.26;21358.75;5020211;28;20764;-60
2023/08/23 00:31:38;;;;;;;5.28;4.05;;;;;;;-141.84;72.62;21358.75;5026313;28;20609;-60
2023/08/23 00:34:08;;;;;;;5.13;4.53;;;;;;;-141.84;72.53;21379.06;5020274;28;20317;-67
2023/08/23 00:36:36;;;;;;;4.78;4.28;;;;;;;-141.84;72.71;21368.91;5022714;28;20767;-66
2023/08/23 00:39:05;;;;;;;5.32;4.50;;;;;;;-141.84;72.98;21397.38;5024071;28;20684;-67
2023/08/23 00:41:33;;;;;;;6.53;4.65;;;;;;;-141.84;73.00;21391.28;5024944;28;20206;-67
2023/08/23 00:44:03;;;;;;;5.40;4.35;;;;;;;-141.84;73.52;21332.31;5017832;28;20303;-66
2023/08/23 00:46:31;;;;;;;6.25;4.28;;;;;;;-141.84;74.26;21334.34;5025257;28;20276;-59
2023/08/23 00:49:00;;;;;;;4.75;4.35;;;;;;;-141.84;74.31;21311.97;5024416;28;20222;-60
2023/08/23 00:51:31;;;;;;;7.20;4.63;;;;;;;-141.84;73.92;21324.19;5020249;28;20245;-59
2023/08/23 00:54:00;;;;;;;6.30;4.57;;;;;;;-141.84;74.01;21307.91;5026640;28;20301;-60
2023/08/23 00:56:29;;;;;;;5.40;4.40;;;;;;;-141.84;74.78;21297.75;5022187;28;20280;-66
2023/08/23 00:58:59;;;;;;;5.10;4.60;;;;;;;-141.84;74.63;21297.75;5022030;28;20261;-67
2023/08/23 01:01:27;;;;;;;5.78;4.82;;;;;;;-141.84;74.90;21236.75;5023853;28;20226;-66
2023/08/23 01:03:58;;;;;;;5.28;4.40;;;;;;;-141.84;75.05;21230.66;5024019;28;20741;-66
2023/08/23 01:06:37;;;;;;;6.03;4.50;;;;;;;-141.84;73.84;21248.94;5025437;28;20234;-59
2023/08/23 01:09:16;;;;;;;7.38;4.82;;;;;;;-141.84;72.41;21283.50;5017081;28;20701;-60
2023/08/23 01:12:04;;;;;;;6.97;4.30;;;;;;;-141.84;71.89;21261.16;5027685;28;20272;-60
2023/08/23 01:14:43;;;;;;;5.80;4.65;;;;;;;-141.84;71.37;21301.81;4998664;28;20434;-60
2023/08/23 01:17:14;;;;;;;4.93;3.90;;;;;;;-141.84;71.42;21295.72;5023390;28;20327;-67
2023/08/23 01:19:48;;;;;;;6.32;4.03;;;;;;;-141.84;71.13;21305.88;5026091;28;20322;-60
2023/08/23 01:22:20;;;;;;;4.53;4.07;;;;;;;-141.84;71.10;21261.16;5024770;28;20275;-66
2023/08/23 01:24:54;;;;;;;8.65;4.13;;;;;;;-141.84;71.36;21261.16;5028929;28;20206;-66
2023/08/23 01:27:22;;;;;;;6.28;3.78;;;;;;;-141.84;69.83;21275.38;5020336;28;20641;-66
2023/08/23 01:29:51;;;;;;;7.30;4.00;;;;;;;-141.84;70.46;21238.78;5013691;28;20268;-61
2023/08/23 01:32:31;;;;;;;5.82;3.92;;;;;;;-141.84;69.07;21253.00;5029374;28;20202;-60
2023/08/23 01:35:13;;;;;;;5.32;3.97;;;;;;;-141.84;68.01;21259.13;5026632;28;20230;-66
2023/08/23 01:37:44;;;;;;;5.65;3.92;;;;;;;-141.84;67.88;21293.69;5024317;28;20321;-60
2023/08/23 01:40:16;;;;;;;7.10;4.00;;;;;;;-141.84;67.00;21295.72;5025402;28;20237;-61
2023/08/23 01:42:46;;;;;;;5.22;3.50;;;;;;;-141.84;67.01;21316.03;5029128;28;20317;-61
2023/08/23 01:45:14;;;;;;;6.53;3.90;;;;;;;-141.84;67.47;21291.66;5024065;28;20240;-67
2023/08/23 01:47:42;;;;;;;8.93;3.65;;;;;;;-141.84;69.33;21277.41;5031285;28;20705;-66
2023/08/23 01:50:11;;;;;;;5.72;3.38;;;;;;;-141.84;69.52;21295.72;5024731;28;20237;-60
2023/08/23 01:52:40;;;;;;;7.25;4.95;;;;;;;-141.84;69.32;21226.59;5019222;28;20416;-66
2023/08/23 01:55:09;;;;;;;8.13;4.22;;;;;;;-141.84;69.19;21236.75;5028952;28;20236;-66
2023/08/23 01:57:40;;;;;;;7.15;3.97;;;;;;;-141.84;69.61;21212.34;5024958;28;20226;-66
2023/08/23 02:00:10;;;;;;;6.70;4.30;;;;;;;-141.84;69.27;21224.56;5018834;28;20249;-66
2023/08/23 02:02:38;;;;;;;7.13;4.43;;;;;;;-141.84;68.79;21263.19;5024894;28;20256;-65
2023/08/23 02:05:08;;;;;;;5.03;3.75;;;;;;;-141.84;69.17;21244.88;5021168;28;20268;-60
2023/08/23 02:07:36;;;;;;;5.82;3.90;;;;;;;-141.84;69.04;21226.59;5025631;28;20210;-60
2023/08/23 02:10:05;;;;;;;7.72;4.28;;;;;;;-141.84;68.98;21232.69;5019428;28;20349;-67
2023/08/23 02:12:34;;;;;;;5.80;3.70;;;;;;;-141.84;69.55;21216.41;5029527;28;20558;-66
2023/08/23 02:15:04;;;;;;;7.45;3.90;;;;;;;-141.84;69.78;21208.28;5031479;28;20728;-68
2023/08/23 02:17:32;;;;;;;6.95;3.80;;;;;;;-141.84;70.05;21175.75;5020556;28;20305;-65
2023/08/23 02:20:01;;;;;;;6.10;4.07;;;;;;;-141.84;70.17;21159.50;5026611;28;20229;-65
2023/08/23 02:22:29;;;;;;;6.82;3.55;;;;;;;-141.84;70.73;21177.78;5015510;28;20226;-66
2023/08/23 02:24:58;;;;;;;5.10;3.78;;;;;;;-141.84;70.64;21167.63;5024890;28;20302;-59
2023/08/23 02:27:26;;;;;;;5.85;3.50;;;;;;;-141.84;70.94;21155.44;5021156;28;20237;-60
2023/08/23 02:29:55;;;;;;;5.93;3.88;;;;;;;-141.84;71.41;21131.03;5016204;28;20240;-60
2023/08/23 02:32:25;;;;;;;5.90;3.83;;;;;;;-141.84;71.94;21143.22;5020286;28;20229;-59
2023/08/23 02:34:53;;;;;;;6.53;3.78;;;;;;;-141.84;72.03;21131.03;5017268;28;20570;-67
2023/08/23 02:37:22;;;;;;;7.65;3.70;;;;;;;-141.84;71.85;21112.72;5025386;28;20253;-59
2023/08/23 02:39:50;;;;;;;5.03;3.85;;;;;;;-141.84;72.38;21106.63;5006439;28;20222;-60
2023/08/23 02:42:19;;;;;;;8.85;4.20;;;;;;;-141.84;72.43;21072.06;5029356;28;20296;-60
2023/08/23 02:44:47;;;;;;;4.53;3.70;;;;;;;-141.84;71.57;21118.84;5025586;28;20242;-59
2023/08/23 02:47:16;;;;;;;7.03;3.95;;;;;;;-141.84;71.57;21096.47;5028273;28;20202;-60
2023/08/23 02:49:45;;;;;;;4.78;3.67;;;;;;;-141.84;72.69;21078.16;4996966;28;20232;-67
2023/08/23 02:52:17;;;;;;;5.75;4.40;;;;;;;-141.84;72.94;21033.44;5027298;28;20237;-69
2023/08/23 02:54:45;;;;;;;4.40;3.80;;;;;;;-141.84;74.00;21057.84;5014478;28;20194;-60
2023/08/23 02:57:14;;;;;;;5.85;3.70;;;;;;;-141.84;73.97;21027.34;5020508;28;20319;-59
2023/08/23 02:59:42;;;;;;;6.25;4.25;;;;;;;-141.84;73.97;21009.03;5025569;28;20234;-60
2023/08/23 03:02:11;;;;;;;8.63;4.07;;;;;;;-141.84;73.57;21039.53;5017017;28;20796;-67
2023/08/23 03:04:39;;;;;;;6.35;4.35;;;;;;;-141.84;74.38;21000.91;5020915;28;20229;-60
2023/08/23 03:07:09;;;;;;;5.07;4.13;;;;;;;-141.84;74.89;20986.69;5014415;28;20253;-67
2023/08/23 03:09:40;;;;;;;5.70;4.50;;;;;;;-141.84;73.88;20988.72;5028582;28;20212;-66
2023/08/23 03:12:09;;;;;;;4.82;4.20;;;;;;;-141.84;73.65;21011.09;5027868;28;20292;-67
2023/08/23 03:14:37;;;;;;;7.40;3.80;;;;;;;-141.84;73.84;21009.03;5031725;28;20329;-67
2023/08/23 03:17:06;;;;;;;9.82;5.43;;;;;;;-141.84;73.76;20972.47;5021753;28;20230;-60
2023/08/23 03:19:36;;;;;;;7.15;4.90;;;;;;;-141.84;72.95;20956.19;5028063;28;20209;-61
2023/08/23 03:22:05;;;;;;;5.38;4.88;;;;;;;-141.84;72.34;20988.72;5028961;28;20280;-59
2023/08/23 03:24:35;;;;;;;7.72;4.22;;;;;;;-141.84;72.59;20994.81;5029344;28;20229;-60
2023/08/23 03:27:04;;;;;;;6.50;3.85;;;;;;;-141.84;73.77;20976.53;5028849;28;20190;-60
2023/08/23 03:29:32;;;;;;;4.95;4.00;;;;;;;-141.84;73.83;21009.03;5028706;28;20233;-60
2023/08/23 03:32:00;;;;;;;6.53;4.50;;;;;;;-141.84;73.27;21004.97;5028494;28;20199;-60
2023/08/23 03:34:29;;;;;;;5.78;4.07;;;;;;;-141.84;73.64;20996.84;5027939;28;20521;-61
2023/08/23 03:36:57;;;;;;;7.82;4.50;;;;;;;-141.84;73.29;20996.84;5028131;28;20297;-60
2023/08/23 03:39:26;;;;;;;6.13;3.78;;;;;;;-141.84;73.27;20974.50;5028928;28;20202;-59
2023/08/23 03:41:56;;;;;;;6.47;3.97;;;;;;;-141.84;73.83;20960.25;5028707;28;20214;-59
2023/08/23 03:44:24;;;;;;;5.38;4.13;;;;;;;-141.84;73.65;20931.78;5030924;28;20372;-60
2023/08/23 03:46:56;;;;;;;4.68;4.28;;;;;;;-141.84;74.26;20941.97;5035098;28;20256;-61
2023/08/23 03:49:24;;;;;;;6.85;4.05;;;;;;;-141.84;73.94;20964.31;5029211;28;20234;-59
2023/08/23 03:51:56;;;;;;;6.28;4.07;;;;;;;-141.84;73.89;20933.81;5029255;28;20205;-59
2023/08/23 03:54:25;;;;;;;6.43;4.45;;;;;;;-141.84;73.68;20919.59;5031821;28;20232;-59
2023/08/23 03:56:55;;;;;;;5.03;4.15;;;;;;;-141.84;73.75;20956.19;5028576;28;20783;-59
2023/08/23 03:59:23;;;;;;;5.43;4.00;;;;;;;-141.84;73.74;20941.97;5028802;28;20297;-61
2023/08/23 04:01:52;;;;;;;6.80;4.50;;;;;;;-141.84;73.65;20935.88;5036846;28;20792;-60
2023/08/23 04:04:20;;;;;;;6.63;4.35;;;;;;;-141.84;73.82;20921.63;5032478;28;20209;-60
2023/08/23 04:06:49;;;;;;;6.95;4.60;;;;;;;-141.84;73.25;20976.53;5031884;28;20216;-60
2023/08/23 04:09:17;;;;;;;9.65;4.45;;;;;;;-141.84;73.76;20929.75;5032273;28;20642;-59
2023/08/23 04:11:46;;;;;;;5.88;4.40;;;;;;;-141.84;73.64;20952.13;5032677;28;20205;-61
2023/08/23 04:14:16;;;;;;;6.30;4.50;;;;;;;-141.84;73.59;20956.19;5032737;28;20653;-61
2023/08/23 04:16:44;;;;;;;6.78;4.63;;;;;;;-141.84;73.67;20919.59;5032672;28;20210;-59
2023/08/23 04:19:14;;;;;;;6.80;4.70;;;;;;;-141.84;73.19;20960.25;5029287;28;20319;-62
2023/08/23 04:21:42;;;;;;;9.38;4.47;;;;;;;-141.84;73.96;20950.09;5030124;28;20695;-59
2023/08/23 04:24:11;;;;;;;8.82;4.25;;;;;;;-141.84;73.95;20933.81;5032773;28;20198;-60
2023/08/23 04:26:39;;;;;;;11.75;10.70;;;;;;;-141.84;73.57;20944.00;5032863;28;20289;-60
2023/08/23 04:29:08;;;;;;;9.27;8.38;;;;;;;-141.84;73.73;20968.38;5031251;28;20237;-60
2023/08/23 04:31:38;;;;;;;10.20;6.45;;;;;;;-141.84;73.48;20927.72;5031397;28;20197;-60
2023/08/23 04:34:06;;;;;;;7.35;5.50;;;;;;;-141.84;73.66;20919.59;5030045;28;20606;-59
2023/08/23 04:36:35;;;;;;;10.90;5.45;;;;;;;-141.84;74.04;20893.16;5031444;28;20220;-59
2023/08/23 04:39:03;;;;;;;5.53;5.00;;;;;;;-141.84;74.20;20927.72;5031219;28;21077;-60
2023/08/23 04:41:32;;;;;;;8.73;4.63;;;;;;;-141.84;74.43;20948.06;5031281;28;20305;-60
2023/08/23 04:44:00;;;;;;;6.72;5.38;;;;;;;-141.84;74.26;20970.41;5031375;28;20316;-60
2023/08/23 04:46:30;;;;;;;7.55;4.38;;;;;;;-141.84;73.17;20960.25;5031830;28;20286;-60
2023/08/23 04:49:00;;;;;;;5.22;4.30;;;;;;;-141.84;72.94;21027.34;5030323;28;20230;-60
2023/08/23 04:51:28;;;;;;;5.82;3.97;;;;;;;-141.84;73.14;21025.31;5026985;28;20301;-60
2023/08/23 04:53:57;;;;;;;7.15;3.85;;;;;;;-141.84;72.28;21051.75;5028891;28;20341;-59
2023/08/23 04:56:25;;;;;;;4.28;3.88;;;;;;;-141.84;72.29;21029.38;5030235;28;20198;-60
2023/08/23 04:58:54;;;;;;;5.88;4.13;;;;;;;-141.84;71.89;21045.63;5030229;28;20289;-60
2023/08/23 05:01:22;;;;;;;7.72;4.18;;;;;;;-141.84;71.75;21061.91;5029461;28;20688;-60
2023/08/23 05:03:51;;;;;;;7.80;4.05;;;;;;;-141.84;72.14;21082.25;5030899;28;20225;-59
2023/08/23 05:06:20;;;;;;;6.60;3.65;;;;;;;-141.84;72.25;21072.06;5030559;28;20230;-60
2023/08/23 05:08:49;;;;;;;7.28;4.07;;;;;;;-141.84;72.23;21084.28;5030058;28;20289;-59
2023/08/23 05:11:17;;;;;;;4.90;4.00;;;;;;;-141.84;71.74;21094.44;5030162;28;20681;-61
2023/08/23 05:13:46;;;;;;;6.90;4.53;;;;;;;-141.84;70.66;21126.97;5030325;28;20562;-61
2023/08/23 05:16:14;;;;;;;5.70;3.63;;;;;;;-141.84;69.46;21122.91;5028285;28;20198;-60
2023/08/23 05:18:43;;;;;;;9.88;3.95;;;;;;;-141.84;68.13;21173.72;5032117;28;20217;-60
2023/08/23 05:21:11;;;;;;;6.25;3.60;;;;;;;-141.84;68.50;21214.38;5026290;28;20700;-60
2023/08/23 05:23:41;;;;;;;5.82;3.72;;;;;;;-141.84;66.57;21244.88;5028947;28;20513;-60
2023/08/23 05:26:09;;;;;;;7.88;4.18;;;;;;;-141.84;64.24;21360.78;5031705;28;20198;-60
2023/08/23 05:28:38;;;;;;;6.45;4.50;;;;;;;-141.84;64.41;21377.03;5030090;28;20213;-60
2023/08/23 05:31:06;;;;;;;7.60;4.00;;;;;;;-141.84;63.93;21425.84;5030392;28;20285;-59
2023/08/23 05:33:35;;;;;;;5.05;3.63;;;;;;;-141.84;63.82;21440.06;5028705;28;20210;-60
2023/08/23 05:36:03;;;;;;;5.90;3.55;;;;;;;-141.84;64.74;21458.38;5032798;28;20208;-60
2023/08/23 05:38:32;;;;;;;4.45;3.10;;;;;;;-141.84;64.99;21391.28;5027207;28;20242;-60
2023/08/23 05:41:02;;;;;;;6.22;3.53;;;;;;;-141.84;64.90;21383.13;5040268;28;20221;-60
2023/08/23 05:43:30;;;;;;;8.07;4.22;;;;;;;-141.84;64.08;21407.53;5023951;28;20268;-67
2023/08/23 05:45:59;;;;;;;4.93;3.65;;;;;;;-141.84;63.47;21442.09;5033760;28;20316;-60
2023/08/23 05:48:28;;;;;;;5.28;3.38;;;;;;;-141.84;62.60;21521.41;5026275;28;20301;-60
2023/08/23 05:50:57;;;;;;;7.72;4.18;;;;;;;-141.84;61.36;21584.44;5030418;28;20210;-60
2023/08/23 05:53:25;;;;;;;5.65;3.65;;;;;;;-141.84;60.74;21627.13;5029623;28;20240;-61
2023/08/23 05:55:54;;;;;;;4.20;3.40;;;;;;;-141.84;60.10;21682.03;5030750;28;20619;-60
2023/08/23 05:58:25;;;;;;;6.90;3.95;;;;;;;-141.84;60.00;21718.63;5029788;28;20209;-60
2023/08/23 06:00:55;;;;;;;7.20;3.88;;;;;;;-141.84;59.55;21771.50;5025752;28;20866;-60
2023/08/23 06:03:23;;;;;;;7.85;3.80;;;;;;;-141.84;59.96;21700.31;5034017;28;20201;-60
2023/08/23 06:05:55;;;;;;;5.75;3.67;;;;;;;-141.84;60.27;21686.09;5030855;28;20206;-59
2023/08/23 06:08:23;;;;;;;5.38;4.22;;;;;;;-141.84;60.27;21702.34;5031963;28;20201;-60
2023/08/23 06:10:52;;;;;;;6.82;4.05;;;;;;;-141.84;59.77;21694.22;5030094;28;20198;-60
2023/08/23 06:13:20;;;;;;;7.68;3.35;;;;;;;-141.84;60.92;21659.66;5029948;28;20240;-61
2023/08/23 06:15:50;;;;;;;6.88;4.00;;;;;;;-141.84;61.10;21663.72;5028586;28;20198;-60
2023/08/23 06:18:19;;;;;;;6.60;4.25;;;;;;;-141.84;60.58;21645.44;5029566;28;20213;-60
2023/08/23 06:20:49;;;;;;;5.47;4.38;;;;;;;-141.84;60.16;21673.88;5028694;28;20202;-60
2023/08/23 06:23:17;;;;;;;6.22;4.00;;;;;;;-141.84;60.50;21651.53;5026455;28;20210;-59
2023/08/23 06:25:46;;;;;;;4.35;3.58;;;;;;;-141.84;60.80;21625.09;5028561;28;20208;-60
2023/08/23 06:28:14;;;;;;;8.05;4.28;;;;;;;-141.84;62.42;21576.28;5030348;28;20202;-61
2023/08/23 06:30:43;;;;;;;7.85;4.32;;;;;;;-141.84;62.50;21584.44;5029664;28;20206;-59
2023/08/23 06:33:13;;;;;;;4.50;3.47;;;;;;;-141.84;63.36;21517.31;5029585;28;20242;-59
2023/08/23 06:35:41;;;;;;;6.65;3.78;;;;;;;-141.84;64.02;21497.00;5030349;28;20530;-60
2023/08/23 06:38:10;;;;;;;9.30;4.30;;;;;;;-141.84;65.24;21484.78;5028482;28;20198;-61
2023/08/23 06:40:40;;;;;;;6.10;4.53;;;;;;;-141.84;66.28;21464.47;5029127;28;20205;-60
2023/08/23 06:43:08;;;;;;;4.38;3.70;;;;;;;-141.84;66.73;21464.47;5029182;28;20325;-60
2023/08/23 06:45:37;;;;;;;7.18;4.20;;;;;;;-141.84;66.11;21505.13;5029510;28;20202;-60
2023/08/23 06:48:06;;;;;;;5.00;3.95;;;;;;;-141.84;65.74;21531.56;5030356;28;20208;-59
2023/08/23 06:50:37;;;;;;;6.55;4.00;;;;;;;-141.84;63.58;21568.16;5029084;28;20205;-59
2023/08/23 06:53:06;;;;;;;5.43;3.50;;;;;;;-141.84;63.80;21592.56;5027151;28;20277;-60
2023/08/23 06:55:39;;;;;;;5.53;3.80;;;;;;;-141.84;63.89;21627.13;5029142;28;20260;-60
2023/08/23 06:58:07;;;;;;;6.15;4.43;;;;;;;-141.84;63.83;21635.25;5028706;28;20210;-60
2023/08/23 07:00:36;;;;;;;5.53;4.07;;;;;;;-141.84;63.07;21684.06;5028437;28;20236;-59
2023/08/23 07:03:04;;;;;;;7.38;4.25;;;;;;;-141.84;63.56;21702.34;5027893;28;20222;-59
2023/08/23 07:05:36;;;;;;;6.68;4.72;;;;;;;-141.84;61.75;21710.50;5028743;28;20198;-61
2023/08/23 07:08:04;;;;;;;10.25;4.03;;;;;;;-141.84;61.94;21698.28;5027937;28;20313;-61
2023/08/23 07:10:33;;;;;;;6.63;3.97;;;;;;;-141.84;62.28;21706.44;5027966;28;20198;-60
2023/08/23 07:13:01;;;;;;;8.68;4.68;;;;;;;-141.84;62.53;21728.78;5027698;28;20205;-60
2023/08/23 07:15:30;;;;;;;12.13;5.43;;;;;;;-141.84;60.96;21789.78;5028368;28;20206;-60
2023/08/23 07:17:58;;;;;;;11.43;4.60;;;;;;;-141.84;61.53;21777.59;5028717;28;20202;-61
2023/08/23 07:20:27;;;;;;;7.28;4.53;;;;;;;-141.84;61.94;21771.50;5028451;28;20275;-60
2023/08/23 07:22:56;;;;;;;4.47;3.53;;;;;;;-141.84;62.13;21763.34;5024768;28;20213;-60
2023/08/23 07:25:25;;;;;;;6.70;3.75;;;;;;;-141.84;62.03;21777.59;5026351;28;20198;-60
2023/08/23 07:27:53;;;;;;;4.95;3.38;;;;;;;-141.84;61.67;21779.63;5028504;28;20280;-62
2023/08/23 07:30:22;;;;;;;5.60;5.05;;;;;;;-141.84;60.50;21828.44;5028298;28;20208;-61
2023/08/23 07:32:50;;;;;;;9.85;5.00;;;;;;;-141.84;59.96;21863.00;5027998;28;20285;-60
2023/08/23 07:35:19;;;;;;;4.93;3.67;;;;;;;-141.84;59.94;21840.63;5028873;28;20547;-59
2023/08/23 07:37:47;;;;;;;7.43;4.80;;;;;;;-141.84;60.85;21871.13;5031219;28;20661;-61
2023/08/23 07:40:18;;;;;;;7.13;4.38;;;;;;;-141.84;61.45;21881.28;5031474;28;20280;-59
2023/08/23 07:42:46;;;;;;;4.95;4.18;;;;;;;-141.84;58.96;21905.69;5031529;28;20325;-60
2023/08/23 07:45:15;;;;;;;6.13;4.50;;;;;;;-141.84;58.39;21940.25;5032349;28;20289;-60
2023/08/23 07:47:43;;;;;;;6.13;4.78;;;;;;;-141.84;58.41;21958.56;5031521;28;20216;-60
2023/08/23 07:50:12;;;;;;;7.20;5.57;;;;;;;-141.84;57.48;21940.25;5031575;28;20628;-60
2023/08/23 07:52:40;;;;;;;5.93;4.47;;;;;;;-141.84;57.79;21944.34;5031293;28;20598;-60
2023/08/23 07:55:09;;;;;;;4.10;3.70;;;;;;;-141.84;58.05;21964.66;5031591;28;20205;-60
2023/08/23 07:57:39;;;;;;;4.10;3.10;;;;;;;-141.84;57.92;21999.25;5031327;28;20204;-61
2023/08/23 08:00:09;;;;;;;10.18;4.40;;;;;;;-141.84;57.83;22029.75;5031373;28;20661;-60
2023/08/23 08:02:38;;;;;;;7.78;4.35;;;;;;;-141.84;56.82;22037.88;5031356;28;20561;-60
2023/08/23 08:05:08;;;;;;;7.10;5.13;;;;;;;-141.84;55.25;22123.28;5031463;28;20733;-60
2023/08/23 08:07:37;;;;;;;6.60;5.15;;;;;;;-141.84;55.22;22143.63;5030882;28;20248;-60
2023/08/23 08:10:26;;;;;;;7.20;3.53;;;;;;;-141.84;55.92;22086.69;5031525;28;20252;-60
2023/08/23 08:12:55;;;;;;;4.32;3.92;;;;;;;-141.84;56.07;22102.94;5031105;28;20202;-60
2023/08/23 08:15:24;;;;;;;7.70;4.22;;;;;;;-141.84;55.73;22111.09;5027769;28;20240;-61
2023/08/23 08:17:53;;;;;;;4.75;3.90;;;;;;;-141.84;55.80;22178.19;5031594;28;20194;-60
2023/08/23 08:20:24;;;;;;;5.47;4.25;;;;;;;-141.84;55.12;22143.63;5031544;28;20631;-61
2023/08/23 08:22:53;;;;;;;5.32;4.60;;;;;;;-141.84;54.65;22212.75;5029813;28;20214;-61
2023/08/23 08:25:21;;;;;;;3.85;3.30;;;;;;;-141.84;54.79;22204.63;5027485;28;20733;-62
2023/08/23 08:27:51;;;;;;;6.20;3.50;;;;;;;-141.84;54.74;22184.28;5029654;28;20198;-62
2023/08/23 08:30:21;;;;;;;5.72;3.97;;;;;;;-141.84;54.85;22180.22;5031223;28;20202;-60
2023/08/23 08:32:50;;;;;;;5.97;4.10;;;;;;;-141.84;55.46;22180.22;5030812;28;20202;-61
2023/08/23 08:35:18;;;;;;;6.82;4.13;;;;;;;-141.84;55.44;22174.13;5027312;28;20712;-59
2023/08/23 08:37:47;;;;;;;3.95;2.90;;;;;;;-141.84;55.54;22216.81;5031500;28;20293;-60
2023/08/23 08:40:16;;;;;;;4.85;2.97;;;;;;;-141.84;55.24;22245.28;5032081;28;20293;-60
2023/08/23 08:42:45;;;;;;;4.00;2.70;;;;;;;-141.84;55.07;22251.41;5030628;28;20285;-60
2023/08/23 08:45:14;;;;;;;3.83;3.22;;;;;;;-141.84;54.90;22239.19;5030687;28;20194;-60
2023/08/23 08:47:45;;;;;;;6.63;4.60;;;;;;;-141.84;54.60;22326.66;5033862;28;20209;-60
2023/08/23 08:50:13;;;;;;;6.10;3.38;;;;;;;-141.84;55.12;22322.56;5030834;28;20224;-60
2023/08/23 08:52:47;;;;;;;7.22;4.50;;;;;;;-141.84;54.21;22330.72;5029195;28;20231;-61
2023/08/23 08:55:16;;;;;;;4.80;4.40;;;;;;;-141.84;54.57;22334.78;5027047;28;20700;-59
2023/08/23 08:57:52;;;;;;;4.57;4.15;;;;;;;-141.84;55.22;22324.59;5029635;28;20765;-60
2023/08/23 09:00:22;;;;;;;5.60;3.65;;;;;;;-141.84;55.18;22359.19;5030869;28;20197;-61
2023/08/23 09:02:54;;;;;;;8.50;3.80;;;;;;;-141.84;53.08;22391.72;5030401;28;20241;-60
2023/08/23 09:05:25;;;;;;;5.25;4.72;;;;;;;-141.84;51.59;22466.97;5030078;28;20218;-63
2023/08/23 09:07:55;;;;;;;4.38;3.13;;;;;;;-141.84;52.18;22418.16;5026892;28;20214;-60
2023/08/23 09:10:25;;;;;;;4.90;4.07;;;;;;;-141.84;52.55;22426.28;5029078;28;20280;-60
2023/08/23 09:12:54;;;;;;;5.28;4.10;;;;;;;-141.84;53.25;22414.09;5030212;28;20200;-60
2023/08/23 09:15:24;;;;;;;7.00;3.50;;;;;;;-141.84;54.10;22424.25;5029907;28;20265;-61
2023/08/23 09:17:55;;;;;;;4.18;3.72;;;;;;;-141.84;51.86;22450.69;5031021;28;20200;-61
2023/08/23 09:20:23;;;;;;;6.35;4.25;;;;;;;-141.84;50.40;22481.22;5029796;28;20205;-60
2023/08/23 09:22:52;;;;;;;5.13;3.45;;;;;;;-141.84;50.72;22489.34;5030559;28;20272;-61
2023/08/23 09:25:21;;;;;;;3.65;3.30;;;;;;;-141.84;51.19;22495.44;5030148;28;20224;-61
2023/08/23 09:27:50;;;;;;;3.65;3.35;;;;;;;-141.84;51.06;22511.72;5029782;28;20688;-61
2023/08/23 09:30:19;;;;;;;4.63;3.78;;;;;;;-141.84;50.52;22473.06;5029716;28;20719;-61
2023/08/23 09:32:47;;;;;;;6.65;4.00;;;;;;;-141.84;50.43;22540.19;5030221;28;20636;-60
2023/08/23 09:35:18;;;;;;;4.78;3.85;;;;;;;-141.84;50.48;22550.34;5029312;28;20285;-60
2023/08/23 09:37:48;;;;;;;6.50;4.32;;;;;;;-141.84;49.63;22578.81;5027206;28;20193;-60
2023/08/23 09:40:19;;;;;;;8.13;3.90;;;;;;;-141.84;50.05;22546.28;5029265;28;20252;-60
2023/08/23 09:42:48;;;;;;;4.10;3.35;;;;;;;-141.84;50.13;22550.34;5029745;28;20727;-59
2023/08/23 09:45:19;;;;;;;7.07;4.00;;;;;;;-141.84;50.38;22562.56;5030123;28;20198;-60
2023/08/23 09:47:52;;;;;;;4.68;3.60;;;;;;;-141.84;50.18;22617.47;5029397;28;20292;-62
2023/08/23 09:50:23;;;;;;;5.45;4.25;;;;;;;-141.84;49.94;22639.84;5026575;28;20537;-60
2023/08/23 09:52:53;;;;;;;6.22;3.88;;;;;;;-141.84;49.66;22696.78;5029830;28;20289;-61
2023/08/23 09:55:22;;;;;;;4.25;3.42;;;;;;;-141.84;49.93;22637.81;5029438;28;20560;-60
2023/08/23 09:57:53;;;;;;;5.43;3.25;;;;;;;-141.84;49.31;22641.88;5029298;28;20213;-61
2023/08/23 10:00:23;;;;;;;4.53;3.90;;;;;;;-141.84;49.26;22666.28;5026074;28;20312;-60
2023/08/23 10:02:53;;;;;;;6.13;3.50;;;;;;;-141.84;49.25;22603.22;5029776;28;20194;-60
2023/08/23 10:05:25;;;;;;;5.68;3.70;;;;;;;-141.84;49.21;22711.03;5028920;28;20298;-61
2023/08/23 10:07:57;;;;;;;3.78;3.38;;;;;;;-141.84;49.24;22662.22;5028993;28;20198;-60
2023/08/23 10:10:27;;;;;;;5.30;3.88;;;;;;;-141.84;49.43;22709.00;5029609;28;20206;-62
2023/08/23 10:13:00;;;;;;;3.50;3.20;;;;;;;-141.84;49.83;22719.16;5029467;28;20277;-61
2023/08/23 10:15:32;;;;;;;5.65;3.90;;;;;;;-141.84;49.18;22776.09;5024272;28;20658;-62
2023/08/23 10:18:04;;;;;;;3.38;3.08;;;;;;;-141.84;49.55;22727.28;5028792;28;20281;-59
2023/08/23 10:20:36;;;;;;;5.43;4.03;;;;;;;-141.84;48.83;22727.28;5029149;28;20226;-61
2023/08/23 10:23:12;;;;;;;3.47;3.17;;;;;;;-141.84;49.02;22784.25;5028899;28;20202;-60
2023/08/23 10:25:42;;;;;;;3.35;3.00;;;;;;;-141.84;48.62;22822.88;5028702;28;20640;-59
2023/08/23 10:28:14;;;;;;;4.30;3.53;;;;;;;-141.84;48.23;22885.94;5028634;28;20237;-60
2023/08/23 10:30:44;;;;;;;5.97;3.97;;;;;;;-141.84;46.53;22991.72;5028575;28;20284;-60
2023/08/23 10:33:14;;;;;;;6.00;3.90;;;;;;;-141.84;46.17;23081.22;5028220;28;20202;-62
2023/08/23 10:35:45;;;;;;;6.15;4.00;;;;;;;-141.84;46.43;23060.88;5028938;28;20199;-60
2023/08/23 10:38:15;;;;;;;9.35;4.35;;;;;;;-141.84;45.92;23107.66;5028511;28;20283;-60
2023/08/23 10:40:45;;;;;;;6.90;3.70;;;;;;;-141.84;45.99;23128.00;5029821;28;20818;-61
2023/08/23 10:43:16;;;;;;;6.88;4.00;;;;;;;-141.84;46.21;23099.50;5028471;28;20260;-61
2023/08/23 10:45:52;;;;;;;4.97;4.07;;;;;;;-141.84;44.86;23197.16;5022449;28;20228;-60
2023/08/23 10:48:22;;;;;;;6.25;4.40;;;;;;;-141.84;44.47;23170.72;5025318;28;20221;-61
2023/08/23 10:50:54;;;;;;;6.38;4.32;;;;;;;-141.84;45.31;23164.59;4996137;28;20238;-60
2023/08/23 10:53:23;;;;;;;4.40;4.00;;;;;;;-141.84;44.71;23186.97;5018309;28;20379;-60
2023/08/23 10:55:56;;;;;;;3.92;3.53;;;;;;;-141.84;45.04;23172.75;5022833;28;20248;-60
2023/08/23 10:58:24;;;;;;;4.15;3.40;;;;;;;-141.84;45.55;23193.09;5008383;28;20234;-65
2023/08/23 11:00:53;;;;;;;5.32;3.75;;;;;;;-141.84;46.05;23146.28;5024245;28;20222;-65
2023/08/23 11:03:24;;;;;;;5.18;3.22;;;;;;;-141.84;45.66;23130.03;5025016;28;20276;-67
2023/08/23 11:05:54;;;;;;;5.13;3.65;;;;;;;-141.84;44.24;23280.56;5025066;28;20218;-61
2023/08/23 11:08:23;;;;;;;3.85;3.53;;;;;;;-141.84;45.08;23256.13;5018169;28;20225;-60
2023/08/23 11:10:52;;;;;;;4.45;3.28;;;;;;;-141.84;44.98;23193.09;5023638;28;20235;-59
2023/08/23 11:13:21;;;;;;;4.70;3.40;;;;;;;-141.84;45.05;23203.25;5020197;28;20313;-60
2023/08/23 11:15:49;;;;;;;4.75;3.05;;;;;;;-141.84;44.16;23113.75;5030325;28;20232;-60
2023/08/23 11:18:18;;;;;;;4.28;2.72;;;;;;;-141.84;44.40;23128.00;5025748;28;20276;-60
2023/08/23 11:20:47;;;;;;;4.65;2.65;;;;;;;-141.84;44.62;23132.06;5014077;28;20316;-67
2023/08/23 11:23:17;;;;;;;4.05;3.28;;;;;;;-141.84;44.54;23103.59;5028614;28;20222;-60
2023/08/23 11:25:46;;;;;;;3.97;2.58;;;;;;;-141.84;44.40;23038.50;5008165;28;20233;-66
2023/08/23 11:28:16;;;;;;;3.55;2.58;;;;;;;-141.84;44.07;23103.59;5024936;28;20233;-66